^^
Station Historical Data
Daily Summary for February 14, 2017 Units:  Both    English   Metric
« Previous Day
Next Day »
Daily Weekly Monthly Yearly Custom
  High: Low: Average:
Temperature: 88.7 °F /  31.5 °C 64.0 °F /  17.8 °C 74.9 °F /  23.8 °C
Dew Point: 61.9 °F /  16.6 °C 42.6 °F /  5.9 °C 54 °F /  12.2 °C
Humidity: 90% 27% 52%
Wind Speed: 6.9mph /  11.1km/h - 1.1mph /  1.8km/h
Wind Gust: 12.0mph /  19.3km/h - -
Wind- - South
Pressure: 29.74 in /  1007 hPa 29.61 in /  1002.6 hPa -
Precipitation: 0.00 in /  0 mm    
Historical Graphs
 
 
Tabular Data for February 14, 2017
Time Temperature Dew Point Pressure Wind Wind Speed Wind Gust Humidity Rainfall Rate (Hourly) solar Conditions
00:03 66.2 °F /  19 °C 61.2 °F /  16.2 °C 29.74in /  1007hPa Calm     84% 0.00in /  0mm 0.0 W/m2
00:09 66.0 °F /  18.9 °C 61.3 °F /  16.3 °C 29.74in /  1007hPa Calm     85% 0.00in /  0mm 0.0 W/m2
00:15 66.0 °F /  18.9 °C 61.3 °F /  16.3 °C 29.73in /  1006.7hPa Calm     85% 0.00in /  0mm 0.0 W/m2
00:21 66.0 °F /  18.9 °C 61.3 °F /  16.3 °C 29.73in /  1006.7hPa Calm     85% 0.00in /  0mm 0.0 W/m2
00:27 65.8 °F /  18.8 °C 61.2 °F /  16.2 °C 29.73in /  1006.7hPa Calm     85% 0.00in /  0mm 0.0 W/m2
00:33 65.8 °F /  18.8 °C 61.5 °F /  16.4 °C 29.73in /  1006.7hPa Calm     86% 0.00in /  0mm 0.0 W/m2
00:40 65.8 °F /  18.8 °C 61.9 °F /  16.6 °C 29.74in /  1007hPa Calm     87% 0.00in /  0mm 0.0 W/m2
00:46 65.7 °F /  18.7 °C 61.7 °F /  16.5 °C 29.73in /  1006.7hPa Calm     87% 0.00in /  0mm 0.0 W/m2
00:52 65.7 °F /  18.7 °C 61.7 °F /  16.5 °C 29.73in /  1006.7hPa Calm     87% 0.00in /  0mm 0.0 W/m2
00:58 65.5 °F /  18.6 °C 61.5 °F /  16.4 °C 29.73in /  1006.7hPa Calm     87% 0.00in /  0mm 0.0 W/m2
01:04 65.5 °F /  18.6 °C 61.9 °F /  16.6 °C 29.73in /  1006.7hPa Calm   1.0mph /  1.6km/h 88% 0.00in /  0mm 0.0 W/m2
01:10 65.5 °F /  18.6 °C 61.9 °F /  16.6 °C 29.72in /  1006.3hPa Calm     88% 0.00in /  0mm 0.0 W/m2
01:16 65.3 °F /  18.5 °C 61.7 °F /  16.5 °C 29.72in /  1006.3hPa Calm     88% 0.00in /  0mm 0.0 W/m2
01:22 65.1 °F /  18.4 °C 61.5 °F /  16.4 °C 29.72in /  1006.3hPa Calm   1.0mph /  1.6km/h 88% 0.00in /  0mm 0.0 W/m2
01:29 65.1 °F /  18.4 °C 61.5 °F /  16.4 °C 29.72in /  1006.3hPa Calm     88% 0.00in /  0mm 0.0 W/m2
01:35 65.1 °F /  18.4 °C 61.9 °F /  16.6 °C 29.72in /  1006.3hPa Calm   1.0mph /  1.6km/h 89% 0.00in /  0mm 0.0 W/m2
01:41 65.1 °F /  18.4 °C 61.9 °F /  16.6 °C 29.72in /  1006.3hPa NE 0.9mph /  1.4km/h 1.0mph /  1.6km/h 89% 0.00in /  0mm 0.0 W/m2
01:47 65.1 °F /  18.4 °C 61.9 °F /  16.6 °C 29.71in /  1006hPa Calm   1.0mph /  1.6km/h 89% 0.00in /  0mm 0.0 W/m2
01:53 65.1 °F /  18.4 °C 61.9 °F /  16.6 °C 29.71in /  1006hPa Calm     89% 0.00in /  0mm 0.0 W/m2
01:59 65.1 °F /  18.4 °C 61.5 °F /  16.4 °C 29.71in /  1006hPa Calm   1.0mph /  1.6km/h 88% 0.00in /  0mm 0.0 W/m2
02:05 64.9 °F /  18.3 °C 61.3 °F /  16.3 °C 29.70in /  1005.6hPa Calm   2.0mph /  3.2km/h 88% 0.00in /  0mm 0.0 W/m2
02:11 64.9 °F /  18.3 °C 61.3 °F /  16.3 °C 29.70in /  1005.6hPa Calm     88% 0.00in /  0mm 0.0 W/m2
02:17 64.9 °F /  18.3 °C 61.3 °F /  16.3 °C 29.70in /  1005.6hPa Calm   1.0mph /  1.6km/h 88% 0.00in /  0mm 0.0 W/m2
02:24 64.8 °F /  18.2 °C 61.2 °F /  16.2 °C 29.70in /  1005.6hPa Calm   2.0mph /  3.2km/h 88% 0.00in /  0mm 0.0 W/m2
02:30 64.8 °F /  18.2 °C 61.2 °F /  16.2 °C 29.70in /  1005.6hPa Calm     88% 0.00in /  0mm 0.0 W/m2
02:36 64.6 °F /  18.1 °C 61.0 °F /  16.1 °C 29.70in /  1005.6hPa Calm   3.0mph /  4.8km/h 88% 0.00in /  0mm 0.0 W/m2
02:42 64.6 °F /  18.1 °C 61.3 °F /  16.3 °C 29.69in /  1005.3hPa Calm   4.0mph /  6.4km/h 89% 0.00in /  0mm 0.0 W/m2
02:48 64.4 °F /  18 °C 61.2 °F /  16.2 °C 29.69in /  1005.3hPa Calm   1.0mph /  1.6km/h 89% 0.00in /  0mm 0.0 W/m2
02:54 64.2 °F /  17.9 °C 61.0 °F /  16.1 °C 29.69in /  1005.3hPa Calm   1.0mph /  1.6km/h 89% 0.00in /  0mm 0.0 W/m2
03:00 64.2 °F /  17.9 °C 61.2 °F /  16.2 °C 29.69in /  1005.3hPa ENE 2.9mph /  4.7km/h 3.0mph /  4.8km/h 90% 0.00in /  0mm 0.0 W/m2
03:07 64.0 °F /  17.8 °C 61.0 °F /  16.1 °C 29.69in /  1005.3hPa NE 2.0mph /  3.2km/h 3.0mph /  4.8km/h 90% 0.00in /  0mm 0.0 W/m2
03:13 64.0 °F /  17.8 °C 61.0 °F /  16.1 °C 29.69in /  1005.3hPa Calm   2.0mph /  3.2km/h 90% 0.00in /  0mm 0.0 W/m2
03:19 64.0 °F /  17.8 °C 61.0 °F /  16.1 °C 29.69in /  1005.3hPa East 0.9mph /  1.4km/h 3.0mph /  4.8km/h 90% 0.00in /  0mm 0.0 W/m2
03:25 64.0 °F /  17.8 °C 61.0 °F /  16.1 °C 29.68in /  1005hPa Calm   1.0mph /  1.6km/h 90% 0.00in /  0mm 0.0 W/m2
03:31 64.0 °F /  17.8 °C 61.0 °F /  16.1 °C 29.68in /  1005hPa Calm     90% 0.00in /  0mm 0.0 W/m2
03:37 64.0 °F /  17.8 °C 61.0 °F /  16.1 °C 29.68in /  1005hPa Calm   1.0mph /  1.6km/h 90% 0.00in /  0mm 0.0 W/m2
03:43 64.0 °F /  17.8 °C 61.0 °F /  16.1 °C 29.68in /  1005hPa Calm     90% 0.00in /  0mm 0.0 W/m2
03:49 64.2 °F /  17.9 °C 61.0 °F /  16.1 °C 29.68in /  1005hPa Calm   1.0mph /  1.6km/h 89% 0.00in /  0mm 0.0 W/m2
03:56 64.2 °F /  17.9 °C 61.0 °F /  16.1 °C 29.68in /  1005hPa Calm   2.0mph /  3.2km/h 89% 0.00in /  0mm 0.0 W/m2
04:02 64.2 °F /  17.9 °C 61.0 °F /  16.1 °C 29.68in /  1005hPa Calm   1.0mph /  1.6km/h 89% 0.00in /  0mm 0.0 W/m2
04:08 64.4 °F /  18 °C 61.2 °F /  16.2 °C 29.68in /  1005hPa Calm   1.0mph /  1.6km/h 89% 0.00in /  0mm 0.0 W/m2
04:14 64.6 °F /  18.1 °C 61.0 °F /  16.1 °C 29.68in /  1005hPa Calm     88% 0.00in /  0mm 0.0 W/m2
04:20 64.6 °F /  18.1 °C 60.6 °F /  15.9 °C 29.68in /  1005hPa Calm   1.0mph /  1.6km/h 87% 0.00in /  0mm 0.0 W/m2
04:26 64.6 °F /  18.1 °C 59.9 °F /  15.5 °C 29.68in /  1005hPa Calm   2.0mph /  3.2km/h 85% 0.00in /  0mm 0.0 W/m2
04:32 64.6 °F /  18.1 °C 59.7 °F /  15.4 °C 29.68in /  1005hPa Calm     84% 0.00in /  0mm 0.0 W/m2
04:39 64.8 °F /  18.2 °C 59.5 °F /  15.3 °C 29.68in /  1005hPa Calm     83% 0.00in /  0mm 0.0 W/m2
04:45 64.8 °F /  18.2 °C 59.5 °F /  15.3 °C 29.68in /  1005hPa Calm     83% 0.00in /  0mm 0.0 W/m2
04:51 64.9 °F /  18.3 °C 59.9 °F /  15.5 °C 29.68in /  1005hPa Calm     84% 0.00in /  0mm 0.0 W/m2
04:57 64.9 °F /  18.3 °C 59.0 °F /  15 °C 29.68in /  1005hPa Calm     81% 0.00in /  0mm 0.0 W/m2
05:03 64.9 °F /  18.3 °C 58.3 °F /  14.6 °C 29.68in /  1005hPa Calm     79% 0.00in /  0mm 0.0 W/m2
05:09 65.1 °F /  18.4 °C 58.5 °F /  14.7 °C 29.68in /  1005hPa Calm     79% 0.00in /  0mm 0.0 W/m2
05:15 65.1 °F /  18.4 °C 57.7 °F /  14.3 °C 29.68in /  1005hPa Calm     77% 0.00in /  0mm 0.0 W/m2
05:21 64.9 °F /  18.3 °C 56.1 °F /  13.4 °C 29.68in /  1005hPa Calm   1.0mph /  1.6km/h 73% 0.00in /  0mm 0.0 W/m2
05:28 65.1 °F /  18.4 °C 54.3 °F /  12.4 °C 29.68in /  1005hPa Calm     68% 0.00in /  0mm 0.0 W/m2
05:34 65.1 °F /  18.4 °C 52.7 °F /  11.5 °C 29.68in /  1005hPa Calm     64% 0.00in /  0mm 0.0 W/m2
05:40 65.5 °F /  18.6 °C 51.6 °F /  10.9 °C 29.69in /  1005.3hPa Calm     61% 0.00in /  0mm 0.0 W/m2
05:46 65.5 °F /  18.6 °C 51.6 °F /  10.9 °C 29.69in /  1005.3hPa Calm     61% 0.00in /  0mm 0.0 W/m2
05:52 65.7 °F /  18.7 °C 51.4 °F /  10.8 °C 29.69in /  1005.3hPa Calm     60% 0.00in /  0mm 0.0 W/m2
05:58 65.7 °F /  18.7 °C 49.5 °F /  9.7 °C 29.69in /  1005.3hPa South 0.9mph /  1.4km/h 1.0mph /  1.6km/h 56% 0.00in /  0mm 0.0 W/m2
06:04 65.8 °F /  18.8 °C 47.1 °F /  8.4 °C 29.69in /  1005.3hPa ESE 0.9mph /  1.4km/h 1.0mph /  1.6km/h 51% 0.00in /  0mm 0.0 W/m2
06:10 66.4 °F /  19.1 °C 46.6 °F /  8.1 °C 29.69in /  1005.3hPa Calm   2.0mph /  3.2km/h 49% 0.00in /  0mm 0.0 W/m2
06:17 66.7 °F /  19.3 °C 45.9 °F /  7.7 °C 29.70in /  1005.6hPa Calm   2.0mph /  3.2km/h 47% 0.00in /  0mm 0.0 W/m2
06:23 67.1 °F /  19.5 °C 43.9 °F /  6.6 °C 29.70in /  1005.6hPa Calm   5.0mph /  8km/h 43% 0.00in /  0mm 0.0 W/m2
06:29 67.6 °F /  19.8 °C 43.7 °F /  6.5 °C 29.70in /  1005.6hPa Calm   5.0mph /  8km/h 42% 0.00in /  0mm 0.0 W/m2
06:35 68.2 °F /  20.1 °C 43.5 °F /  6.4 °C 29.70in /  1005.6hPa Calm   2.0mph /  3.2km/h 41% 0.00in /  0mm 0.0 W/m2
06:41 68.4 °F /  20.2 °C 43.7 °F /  6.5 °C 29.70in /  1005.6hPa SW 0.9mph /  1.4km/h 2.0mph /  3.2km/h 41% 0.00in /  0mm 0.0 W/m2
06:47 68.7 °F /  20.4 °C 43.3 °F /  6.3 °C 29.70in /  1005.6hPa Calm   5.0mph /  8km/h 40% 0.00in /  0mm 7.0 W/m2
06:53 69.1 °F /  20.6 °C 43.7 °F /  6.5 °C 29.71in /  1006hPa Calm   4.0mph /  6.4km/h 40% 0.00in /  0mm 16.0 W/m2
07:00 69.4 °F /  20.8 °C 42.8 °F /  6 °C 29.71in /  1006hPa Calm   7.0mph /  11.3km/h 38% 0.00in /  0mm 32.0 W/m2
07:06 69.6 °F /  20.9 °C 43.5 °F /  6.4 °C 29.71in /  1006hPa SE 2.0mph /  3.2km/h 3.0mph /  4.8km/h 39% 0.00in /  0mm 39.0 W/m2
07:12 69.6 °F /  20.9 °C 45.0 °F /  7.2 °C 29.71in /  1006hPa SSE 2.0mph /  3.2km/h 2.0mph /  3.2km/h 41% 0.00in /  0mm 49.0 W/m2
07:18 69.6 °F /  20.9 °C 45.5 °F /  7.5 °C 29.71in /  1006hPa Calm   1.0mph /  1.6km/h 42% 0.00in /  0mm 46.0 W/m2
07:24 69.4 °F /  20.8 °C 43.3 °F /  6.3 °C 29.71in /  1006hPa Calm   1.0mph /  1.6km/h 39% 0.00in /  0mm 44.0 W/m2
07:30 69.3 °F /  20.7 °C 43.9 °F /  6.6 °C 29.71in /  1006hPa Calm   1.0mph /  1.6km/h 40% 0.00in /  0mm 39.0 W/m2
07:36 69.3 °F /  20.7 °C 42.6 °F /  5.9 °C 29.72in /  1006.3hPa ESE 4.9mph /  7.9km/h 7.0mph /  11.3km/h 38% 0.00in /  0mm 49.0 W/m2
07:42 69.4 °F /  20.8 °C 42.8 °F /  6 °C 29.72in /  1006.3hPa ESE 2.0mph /  3.2km/h 3.0mph /  4.8km/h 38% 0.00in /  0mm 77.0 W/m2
07:49 69.6 °F /  20.9 °C 42.8 °F /  6 °C 29.72in /  1006.3hPa Calm   2.0mph /  3.2km/h 38% 0.00in /  0mm 109.0 W/m2
07:55 69.8 °F /  21 °C 45.7 °F /  7.6 °C 29.72in /  1006.3hPa SE 0.9mph /  1.4km/h 3.0mph /  4.8km/h 42% 0.00in /  0mm 123.0 W/m2
08:01 70.2 °F /  21.2 °C 44.1 °F /  6.7 °C 29.72in /  1006.3hPa South 0.9mph /  1.4km/h 4.0mph /  6.4km/h 39% 0.00in /  0mm 123.0 W/m2
08:07 70.3 °F /  21.3 °C 45.0 °F /  7.2 °C 29.73in /  1006.7hPa Calm   1.0mph /  1.6km/h 40% 0.00in /  0mm 123.0 W/m2
08:13 70.5 °F /  21.4 °C 45.7 °F /  7.6 °C 29.73in /  1006.7hPa Calm   1.0mph /  1.6km/h 41% 0.00in /  0mm 125.0 W/m2
08:19 70.5 °F /  21.4 °C 45.7 °F /  7.6 °C 29.73in /  1006.7hPa Calm     41% 0.00in /  0mm 137.0 W/m2
08:25 70.9 °F /  21.6 °C 47.3 °F /  8.5 °C 29.73in /  1006.7hPa Calm   1.0mph /  1.6km/h 43% 0.00in /  0mm 90.0 W/m2
08:31 71.2 °F /  21.8 °C 45.7 °F /  7.6 °C 29.73in /  1006.7hPa South 0.9mph /  1.4km/h 3.0mph /  4.8km/h 40% 0.00in /  0mm 63.0 W/m2
08:38 72.0 °F /  22.2 °C 44.2 °F /  6.8 °C 29.73in /  1006.7hPa SW 4.0mph /  6.4km/h 4.0mph /  6.4km/h 37% 0.00in /  0mm 74.0 W/m2
08:44 72.9 °F /  22.7 °C 44.4 °F /  6.9 °C 29.73in /  1006.7hPa East 0.9mph /  1.4km/h 4.0mph /  6.4km/h 36% 0.00in /  0mm 113.0 W/m2
08:50 73.4 °F /  23 °C 42.6 °F /  5.9 °C 29.74in /  1007hPa SW 0.9mph /  1.4km/h 2.0mph /  3.2km/h 33% 0.00in /  0mm 455.0 W/m2
08:56 74.1 °F /  23.4 °C 43.9 °F /  6.6 °C 29.74in /  1007hPa SW 0.9mph /  1.4km/h 4.0mph /  6.4km/h 34% 0.00in /  0mm 476.0 W/m2
09:02 74.8 °F /  23.8 °C 44.6 °F /  7 °C 29.74in /  1007hPa SSE 2.9mph /  4.7km/h 6.0mph /  9.7km/h 34% 0.00in /  0mm 503.0 W/m2
09:08 75.9 °F /  24.4 °C 44.8 °F /  7.1 °C 29.74in /  1007hPa SSW 0.9mph /  1.4km/h 4.0mph /  6.4km/h 33% 0.00in /  0mm 538.0 W/m2
09:14 76.6 °F /  24.8 °C 43.7 °F /  6.5 °C 29.73in /  1006.7hPa SE 2.0mph /  3.2km/h 5.0mph /  8km/h 31% 0.00in /  0mm 561.0 W/m2
09:21 77.7 °F /  25.4 °C 45.5 °F /  7.5 °C 29.74in /  1007hPa SSW 2.9mph /  4.7km/h 3.0mph /  4.8km/h 32% 0.00in /  0mm 585.0 W/m2
09:27 78.3 °F /  25.7 °C 44.2 °F /  6.8 °C 29.74in /  1007hPa SW 4.9mph /  7.9km/h 5.0mph /  8km/h 30% 0.00in /  0mm 605.0 W/m2
09:33 78.3 °F /  25.7 °C 44.2 °F /  6.8 °C 29.74in /  1007hPa SSE 6.0mph /  9.7km/h 6.0mph /  9.7km/h 30% 0.00in /  0mm 622.0 W/m2
09:39 78.4 °F /  25.8 °C 44.4 °F /  6.9 °C 29.73in /  1006.7hPa South 4.0mph /  6.4km/h 8.0mph /  12.9km/h 30% 0.00in /  0mm 643.0 W/m2
09:45 78.8 °F /  26 °C 43.9 °F /  6.6 °C 29.73in /  1006.7hPa SSW 2.9mph /  4.7km/h 7.0mph /  11.3km/h 29% 0.00in /  0mm 666.0 W/m2
09:51 79.2 °F /  26.2 °C 44.2 °F /  6.8 °C 29.73in /  1006.7hPa South 6.0mph /  9.7km/h 6.0mph /  9.7km/h 29% 0.00in /  0mm 682.0 W/m2
09:57 79.3 °F /  26.3 °C 44.2 °F /  6.8 °C 29.73in /  1006.7hPa South 0.9mph /  1.4km/h 9.0mph /  14.5km/h 29% 0.00in /  0mm 705.0 W/m2
10:03 79.5 °F /  26.4 °C 43.5 °F /  6.4 °C 29.74in /  1007hPa South 2.0mph /  3.2km/h 5.0mph /  8km/h 28% 0.00in /  0mm 728.0 W/m2
10:09 79.7 °F /  26.5 °C 43.7 °F /  6.5 °C 29.73in /  1006.7hPa SSE 2.9mph /  4.7km/h 8.0mph /  12.9km/h 28% 0.00in /  0mm 747.0 W/m2
10:16 80.1 °F /  26.7 °C 45.9 °F /  7.7 °C 29.73in /  1006.7hPa South 4.0mph /  6.4km/h 9.0mph /  14.5km/h 30% 0.00in /  0mm 768.0 W/m2
10:22 80.2 °F /  26.8 °C 45.1 °F /  7.3 °C 29.73in /  1006.7hPa SW 2.0mph /  3.2km/h 6.0mph /  9.7km/h 29% 0.00in /  0mm 788.0 W/m2
10:28 80.6 °F /  27 °C 46.2 °F /  7.9 °C 29.73in /  1006.7hPa South 6.0mph /  9.7km/h 10.0mph /  16.1km/h 30% 0.00in /  0mm 807.0 W/m2
10:34 80.8 °F /  27.1 °C 44.6 °F /  7 °C 29.73in /  1006.7hPa South 6.0mph /  9.7km/h 10.0mph /  16.1km/h 28% 0.00in /  0mm 823.0 W/m2
10:40 81.3 °F /  27.4 °C 45.1 °F /  7.3 °C 29.73in /  1006.7hPa SSW 6.9mph /  11.1km/h 12.0mph /  19.3km/h 28% 0.00in /  0mm 844.0 W/m2
10:46 81.9 °F /  27.7 °C 45.5 °F /  7.5 °C 29.72in /  1006.3hPa SE 2.9mph /  4.7km/h 9.0mph /  14.5km/h 28% 0.00in /  0mm 838.0 W/m2
10:52 82.2 °F /  27.9 °C 45.9 °F /  7.7 °C 29.73in /  1006.7hPa South 4.9mph /  7.9km/h 5.0mph /  8km/h 28% 0.00in /  0mm 858.0 W/m2
10:58 82.6 °F /  28.1 °C 47.1 °F /  8.4 °C 29.72in /  1006.3hPa South 2.9mph /  4.7km/h 9.0mph /  14.5km/h 29% 0.00in /  0mm 889.0 W/m2
11:05 82.9 °F /  28.3 °C 46.4 °F /  8 °C 29.72in /  1006.3hPa SSE 2.0mph /  3.2km/h 5.0mph /  8km/h 28% 0.00in /  0mm 900.0 W/m2
11:11 83.1 °F /  28.4 °C 46.6 °F /  8.1 °C 29.72in /  1006.3hPa SW 2.9mph /  4.7km/h 9.0mph /  14.5km/h 28% 0.00in /  0mm 918.0 W/m2
11:17 82.8 °F /  28.2 °C 46.4 °F /  8 °C 29.72in /  1006.3hPa SW 2.9mph /  4.7km/h 3.0mph /  4.8km/h 28% 0.00in /  0mm 925.0 W/m2
11:23 82.6 °F /  28.1 °C 47.1 °F /  8.4 °C 29.72in /  1006.3hPa SSE 0.9mph /  1.4km/h 6.0mph /  9.7km/h 29% 0.00in /  0mm 949.0 W/m2
11:29 82.8 °F /  28.2 °C 47.3 °F /  8.5 °C 29.72in /  1006.3hPa SW 2.0mph /  3.2km/h 7.0mph /  11.3km/h 29% 0.00in /  0mm 960.0 W/m2
11:35 83.1 °F /  28.4 °C 46.6 °F /  8.1 °C 29.72in /  1006.3hPa NNW 2.0mph /  3.2km/h 3.0mph /  4.8km/h 28% 0.00in /  0mm 998.0 W/m2
11:41 83.7 °F /  28.7 °C 48.9 °F /  9.4 °C 29.72in /  1006.3hPa South 0.9mph /  1.4km/h 3.0mph /  4.8km/h 30% 0.00in /  0mm 1027.0 W/m2
11:48 84.2 °F /  29 °C 49.5 °F /  9.7 °C 29.72in /  1006.3hPa North 0.9mph /  1.4km/h 6.0mph /  9.7km/h 30% 0.00in /  0mm 1042.0 W/m2
11:54 84.7 °F /  29.3 °C 48.9 °F /  9.4 °C 29.72in /  1006.3hPa SSE 0.9mph /  1.4km/h 6.0mph /  9.7km/h 29% 0.00in /  0mm 1088.0 W/m2
12:00 84.9 °F /  29.4 °C 49.1 °F /  9.5 °C 29.72in /  1006.3hPa WSW 2.0mph /  3.2km/h 3.0mph /  4.8km/h 29% 0.00in /  0mm 1053.0 W/m2
12:06 84.9 °F /  29.4 °C 49.1 °F /  9.5 °C 29.72in /  1006.3hPa SW 2.9mph /  4.7km/h 5.0mph /  8km/h 29% 0.00in /  0mm 155.0 W/m2
12:12 84.6 °F /  29.2 °C 47.8 °F /  8.8 °C 29.72in /  1006.3hPa Calm   6.0mph /  9.7km/h 28% 0.00in /  0mm 1063.0 W/m2
12:18 84.9 °F /  29.4 °C 50.0 °F /  10 °C 29.71in /  1006hPa ESE 4.0mph /  6.4km/h 9.0mph /  14.5km/h 30% 0.00in /  0mm 1076.0 W/m2
12:24 85.8 °F /  29.9 °C 50.7 °F /  10.4 °C 29.71in /  1006hPa East 4.0mph /  6.4km/h 7.0mph /  11.3km/h 30% 0.00in /  0mm 1072.0 W/m2
12:30 86.5 °F /  30.3 °C 50.5 °F /  10.3 °C 29.71in /  1006hPa East 0.9mph /  1.4km/h 5.0mph /  8km/h 29% 0.00in /  0mm 1018.0 W/m2
12:37 87.3 °F /  30.7 °C 51.1 °F /  10.6 °C 29.71in /  1006hPa North 2.9mph /  4.7km/h 4.0mph /  6.4km/h 29% 0.00in /  0mm 1107.0 W/m2
12:43 87.6 °F /  30.9 °C 50.5 °F /  10.3 °C 29.71in /  1006hPa NE 2.9mph /  4.7km/h 6.0mph /  9.7km/h 28% 0.00in /  0mm 1123.0 W/m2
12:49 88.2 °F /  31.2 °C 52.0 °F /  11.1 °C 29.71in /  1006hPa NNE 2.0mph /  3.2km/h 6.0mph /  9.7km/h 29% 0.00in /  0mm 1134.0 W/m2
12:55 88.3 °F /  31.3 °C 50.2 °F /  10.1 °C 29.70in /  1005.6hPa NNW 4.9mph /  7.9km/h 5.0mph /  8km/h 27% 0.00in /  0mm 1136.0 W/m2
13:01 88.3 °F /  31.3 °C 51.1 °F /  10.6 °C 29.70in /  1005.6hPa Calm   4.0mph /  6.4km/h 28% 0.00in /  0mm 1157.0 W/m2
13:07 88.7 °F /  31.5 °C 51.4 °F /  10.8 °C 29.70in /  1005.6hPa North 2.9mph /  4.7km/h 5.0mph /  8km/h 28% 0.00in /  0mm 1176.0 W/m2
13:13 87.8 °F /  31 °C 51.6 °F /  10.9 °C 29.70in /  1005.6hPa NNW 2.0mph /  3.2km/h 5.0mph /  8km/h 29% 0.00in /  0mm 199.0 W/m2
13:19 86.7 °F /  30.4 °C 50.7 °F /  10.4 °C 29.70in /  1005.6hPa NNW 0.9mph /  1.4km/h 1.0mph /  1.6km/h 29% 0.00in /  0mm 221.0 W/m2
13:25 86.2 °F /  30.1 °C 52.9 °F /  11.6 °C 29.70in /  1005.6hPa WNW 0.9mph /  1.4km/h 2.0mph /  3.2km/h 32% 0.00in /  0mm 250.0 W/m2
13:31 85.5 °F /  29.7 °C 53.1 °F /  11.7 °C 29.70in /  1005.6hPa Calm     33% 0.00in /  0mm 230.0 W/m2
13:37 84.9 °F /  29.4 °C 51.8 °F /  11 °C 29.69in /  1005.3hPa ENE 0.9mph /  1.4km/h 2.0mph /  3.2km/h 32% 0.00in /  0mm 290.0 W/m2
13:44 84.9 °F /  29.4 °C 50.9 °F /  10.5 °C 29.70in /  1005.6hPa North 6.9mph /  11.1km/h 7.0mph /  11.3km/h 31% 0.00in /  0mm 315.0 W/m2
13:49 85.5 °F /  29.7 °C 51.4 °F /  10.8 °C 29.69in /  1005.3hPa NNW 2.0mph /  3.2km/h 5.0mph /  8km/h 31% 0.00in /  0mm 1202.0 W/m2
13:55 86.7 °F /  30.4 °C 50.7 °F /  10.4 °C 29.68in /  1005hPa ESE 2.9mph /  4.7km/h 6.0mph /  9.7km/h 29% 0.00in /  0mm 1195.0 W/m2
14:01 88.0 °F /  31.1 °C 50.7 °F /  10.4 °C 29.69in /  1005.3hPa NNW 4.0mph /  6.4km/h 5.0mph /  8km/h 28% 0.00in /  0mm 1192.0 W/m2
14:08 88.7 °F /  31.5 °C 51.4 °F /  10.8 °C 29.69in /  1005.3hPa NW 2.9mph /  4.7km/h 7.0mph /  11.3km/h 28% 0.00in /  0mm 1202.0 W/m2
14:14 88.3 °F /  31.3 °C 52.0 °F /  11.1 °C 29.68in /  1005hPa NNE 2.0mph /  3.2km/h 5.0mph /  8km/h 29% 0.00in /  0mm 281.0 W/m2
14:20 87.3 °F /  30.7 °C 52.0 °F /  11.1 °C 29.68in /  1005hPa North 2.9mph /  4.7km/h 5.0mph /  8km/h 30% 0.00in /  0mm 272.0 W/m2
14:26 86.5 °F /  30.3 °C 52.3 °F /  11.3 °C 29.68in /  1005hPa WSW 0.9mph /  1.4km/h 3.0mph /  4.8km/h 31% 0.00in /  0mm 330.0 W/m2
14:32 86.2 °F /  30.1 °C 52.0 °F /  11.1 °C 29.68in /  1005hPa North 2.0mph /  3.2km/h 10.0mph /  16.1km/h 31% 0.00in /  0mm 325.0 W/m2
14:38 85.6 °F /  29.8 °C 51.6 °F /  10.9 °C 29.67in /  1004.6hPa NNE 2.0mph /  3.2km/h 6.0mph /  9.7km/h 31% 0.00in /  0mm 264.0 W/m2
14:44 84.9 °F /  29.4 °C 51.8 °F /  11 °C 29.67in /  1004.6hPa NE 4.0mph /  6.4km/h 7.0mph /  11.3km/h 32% 0.00in /  0mm 188.0 W/m2
14:50 84.4 °F /  29.1 °C 51.3 °F /  10.7 °C 29.67in /  1004.6hPa ENE 0.9mph /  1.4km/h 3.0mph /  4.8km/h 32% 0.00in /  0mm 160.0 W/m2
14:56 84.0 °F /  28.9 °C 53.4 °F /  11.9 °C 29.67in /  1004.6hPa NNE 6.0mph /  9.7km/h 6.0mph /  9.7km/h 35% 0.00in /  0mm 162.0 W/m2
15:02 83.7 °F /  28.7 °C 52.3 °F /  11.3 °C 29.67in /  1004.6hPa NNE 0.9mph /  1.4km/h 2.0mph /  3.2km/h 34% 0.00in /  0mm 178.0 W/m2
15:08 83.7 °F /  28.7 °C 52.3 °F /  11.3 °C 29.67in /  1004.6hPa Calm   2.0mph /  3.2km/h 34% 0.00in /  0mm 185.0 W/m2
15:14 83.7 °F /  28.7 °C 53.1 °F /  11.7 °C 29.67in /  1004.6hPa Calm   1.0mph /  1.6km/h 35% 0.00in /  0mm 213.0 W/m2
15:20 83.8 °F /  28.8 °C 54.0 °F /  12.2 °C 29.66in /  1004.3hPa NNW 2.0mph /  3.2km/h 4.0mph /  6.4km/h 36% 0.00in /  0mm 278.0 W/m2
15:26 83.8 °F /  28.8 °C 54.9 °F /  12.7 °C 29.66in /  1004.3hPa Calm   3.0mph /  4.8km/h 37% 0.00in /  0mm 399.0 W/m2
15:32 84.0 °F /  28.9 °C 54.1 °F /  12.3 °C 29.65in /  1003.9hPa Calm   4.0mph /  6.4km/h 36% 0.00in /  0mm 258.0 W/m2
15:38 84.2 °F /  29 °C 55.0 °F /  12.8 °C 29.65in /  1003.9hPa Calm   3.0mph /  4.8km/h 37% 0.00in /  0mm 932.0 W/m2
15:44 84.6 °F /  29.2 °C 54.7 °F /  12.6 °C 29.65in /  1003.9hPa South 2.0mph /  3.2km/h 4.0mph /  6.4km/h 36% 0.00in /  0mm 740.0 W/m2
15:50 84.4 °F /  29.1 °C 55.2 °F /  12.9 °C 29.65in /  1003.9hPa Calm   2.0mph /  3.2km/h 37% 0.00in /  0mm 206.0 W/m2
15:56 84.0 °F /  28.9 °C 54.9 °F /  12.7 °C 29.64in /  1003.6hPa WSW 2.0mph /  3.2km/h 3.0mph /  4.8km/h 37% 0.00in /  0mm 204.0 W/m2
16:02 83.7 °F /  28.7 °C 55.4 °F /  13 °C 29.64in /  1003.6hPa Calm   1.0mph /  1.6km/h 38% 0.00in /  0mm 178.0 W/m2
16:08 83.5 °F /  28.6 °C 54.5 °F /  12.5 °C 29.64in /  1003.6hPa Calm   4.0mph /  6.4km/h 37% 0.00in /  0mm 156.0 W/m2
16:14 83.5 °F /  28.6 °C 55.2 °F /  12.9 °C 29.63in /  1003.3hPa Calm   1.0mph /  1.6km/h 38% 0.00in /  0mm 151.0 W/m2
16:20 83.5 °F /  28.6 °C 54.5 °F /  12.5 °C 29.63in /  1003.3hPa South 4.0mph /  6.4km/h 5.0mph /  8km/h 37% 0.00in /  0mm 121.0 W/m2
16:26 82.9 °F /  28.3 °C 54.7 °F /  12.6 °C 29.63in /  1003.3hPa SE 0.9mph /  1.4km/h 1.0mph /  1.6km/h 38% 0.00in /  0mm 107.0 W/m2
16:32 82.8 °F /  28.2 °C 53.1 °F /  11.7 °C 29.63in /  1003.3hPa Calm   1.0mph /  1.6km/h 36% 0.00in /  0mm 113.0 W/m2
16:38 82.8 °F /  28.2 °C 53.8 °F /  12.1 °C 29.63in /  1003.3hPa Calm   1.0mph /  1.6km/h 37% 0.00in /  0mm 100.0 W/m2
16:44 82.8 °F /  28.2 °C 53.8 °F /  12.1 °C 29.62in /  1002.9hPa Calm   1.0mph /  1.6km/h 37% 0.00in /  0mm 114.0 W/m2
16:50 82.8 °F /  28.2 °C 53.1 °F /  11.7 °C 29.62in /  1002.9hPa Calm   1.0mph /  1.6km/h 36% 0.00in /  0mm 128.0 W/m2
16:56 82.9 °F /  28.3 °C 55.4 °F /  13 °C 29.62in /  1002.9hPa ESE 0.9mph /  1.4km/h 3.0mph /  4.8km/h 39% 0.00in /  0mm 652.0 W/m2
17:02 83.8 °F /  28.8 °C 53.2 °F /  11.8 °C 29.62in /  1002.9hPa SSE 0.9mph /  1.4km/h 2.0mph /  3.2km/h 35% 0.00in /  0mm 666.0 W/m2
17:08 84.9 °F /  29.4 °C 56.5 °F /  13.6 °C 29.61in /  1002.6hPa West 0.9mph /  1.4km/h 2.0mph /  3.2km/h 38% 0.00in /  0mm 592.0 W/m2
17:14 85.6 °F /  29.8 °C 54.9 °F /  12.7 °C 29.61in /  1002.6hPa West 2.9mph /  4.7km/h 8.0mph /  12.9km/h 35% 0.00in /  0mm 302.0 W/m2
17:20 84.9 °F /  29.4 °C 55.0 °F /  12.8 °C 29.61in /  1002.6hPa West 0.9mph /  1.4km/h 4.0mph /  6.4km/h 36% 0.00in /  0mm 172.0 W/m2
17:26 84.4 °F /  29.1 °C 55.2 °F /  12.9 °C 29.61in /  1002.6hPa SW 4.0mph /  6.4km/h 5.0mph /  8km/h 37% 0.00in /  0mm 176.0 W/m2
17:32 83.7 °F /  28.7 °C 54.0 °F /  12.2 °C 29.61in /  1002.6hPa SW 0.9mph /  1.4km/h 7.0mph /  11.3km/h 36% 0.00in /  0mm 151.0 W/m2
17:38 83.1 °F /  28.4 °C 54.9 °F /  12.7 °C 29.61in /  1002.6hPa WSW 2.0mph /  3.2km/h 9.0mph /  14.5km/h 38% 0.00in /  0mm 127.0 W/m2
17:44 82.2 °F /  27.9 °C 56.1 °F /  13.4 °C 29.61in /  1002.6hPa West 2.0mph /  3.2km/h 7.0mph /  11.3km/h 41% 0.00in /  0mm 107.0 W/m2
17:50 81.7 °F /  27.6 °C 56.3 °F /  13.5 °C 29.61in /  1002.6hPa West 6.0mph /  9.7km/h 8.0mph /  12.9km/h 42% 0.00in /  0mm 70.0 W/m2
17:56 80.4 °F /  26.9 °C 56.5 °F /  13.6 °C 29.62in /  1002.9hPa West 2.0mph /  3.2km/h 8.0mph /  12.9km/h 44% 0.00in /  0mm 63.0 W/m2
18:02 79.7 °F /  26.5 °C 57.0 °F /  13.9 °C 29.62in /  1002.9hPa WSW 2.0mph /  3.2km/h 5.0mph /  8km/h 46% 0.00in /  0mm 54.0 W/m2
18:08 79.2 °F /  26.2 °C 57.2 °F /  14 °C 29.62in /  1002.9hPa WSW 2.9mph /  4.7km/h 5.0mph /  8km/h 47% 0.00in /  0mm 53.0 W/m2
18:14 78.6 °F /  25.9 °C 57.2 °F /  14 °C 29.62in /  1002.9hPa WSW 2.0mph /  3.2km/h 5.0mph /  8km/h 48% 0.00in /  0mm 53.0 W/m2
18:20 78.3 °F /  25.7 °C 57.0 °F /  13.9 °C 29.62in /  1002.9hPa WSW 2.9mph /  4.7km/h 8.0mph /  12.9km/h 48% 0.00in /  0mm 39.0 W/m2
18:26 77.7 °F /  25.4 °C 56.5 °F /  13.6 °C 29.62in /  1002.9hPa West 2.0mph /  3.2km/h 7.0mph /  11.3km/h 48% 0.00in /  0mm 39.0 W/m2
18:32 77.5 °F /  25.3 °C 56.3 °F /  13.5 °C 29.62in /  1002.9hPa West 0.9mph /  1.4km/h 3.0mph /  4.8km/h 48% 0.00in /  0mm 35.0 W/m2
18:38 77.4 °F /  25.2 °C 56.1 °F /  13.4 °C 29.62in /  1002.9hPa West 0.9mph /  1.4km/h 5.0mph /  8km/h 48% 0.00in /  0mm 33.0 W/m2
18:44 77.4 °F /  25.2 °C 55.6 °F /  13.1 °C 29.62in /  1002.9hPa SW 2.9mph /  4.7km/h 3.0mph /  4.8km/h 47% 0.00in /  0mm 30.0 W/m2
18:50 77.4 °F /  25.2 °C 55.0 °F /  12.8 °C 29.62in /  1002.9hPa Calm   3.0mph /  4.8km/h 46% 0.00in /  0mm 25.0 W/m2
18:56 77.4 °F /  25.2 °C 55.6 °F /  13.1 °C 29.62in /  1002.9hPa Calm   4.0mph /  6.4km/h 47% 0.00in /  0mm 19.0 W/m2
19:02 77.4 °F /  25.2 °C 55.6 °F /  13.1 °C 29.63in /  1003.3hPa Calm   1.0mph /  1.6km/h 47% 0.00in /  0mm 35.0 W/m2
19:08 77.4 °F /  25.2 °C 55.0 °F /  12.8 °C 29.63in /  1003.3hPa SSW 2.0mph /  3.2km/h 7.0mph /  11.3km/h 46% 0.00in /  0mm 16.0 W/m2
19:14 77.4 °F /  25.2 °C 55.0 °F /  12.8 °C 29.63in /  1003.3hPa Calm   2.0mph /  3.2km/h 46% 0.00in /  0mm 12.0 W/m2
19:20 77.4 °F /  25.2 °C 55.6 °F /  13.1 °C 29.63in /  1003.3hPa Calm   1.0mph /  1.6km/h 47% 0.00in /  0mm 9.0 W/m2
19:26 77.4 °F /  25.2 °C 55.6 °F /  13.1 °C 29.64in /  1003.6hPa Calm   1.0mph /  1.6km/h 47% 0.00in /  0mm 7.0 W/m2
19:32 77.4 °F /  25.2 °C 55.6 °F /  13.1 °C 29.64in /  1003.6hPa Calm   2.0mph /  3.2km/h 47% 0.00in /  0mm 5.0 W/m2
19:38 77.4 °F /  25.2 °C 55.6 °F /  13.1 °C 29.64in /  1003.6hPa Calm   1.0mph /  1.6km/h 47% 0.00in /  0mm 5.0 W/m2
19:44 77.2 °F /  25.1 °C 55.4 °F /  13 °C 29.64in /  1003.6hPa Calm     47% 0.00in /  0mm 0.0 W/m2
19:50 77.2 °F /  25.1 °C 55.9 °F /  13.3 °C 29.65in /  1003.9hPa Calm   2.0mph /  3.2km/h 48% 0.00in /  0mm 0.0 W/m2
19:56 77.0 °F /  25 °C 56.3 °F /  13.5 °C 29.65in /  1003.9hPa ESE 0.9mph /  1.4km/h 2.0mph /  3.2km/h 49% 0.00in /  0mm 0.0 W/m2
20:02 76.8 °F /  24.9 °C 56.3 °F /  13.5 °C 29.65in /  1003.9hPa Calm   2.0mph /  3.2km/h 49% 0.00in /  0mm 0.0 W/m2
20:08 76.6 °F /  24.8 °C 56.1 °F /  13.4 °C 29.65in /  1003.9hPa Calm   2.0mph /  3.2km/h 49% 0.00in /  0mm 0.0 W/m2
20:14 76.5 °F /  24.7 °C 55.9 °F /  13.3 °C 29.65in /  1003.9hPa Calm     49% 0.00in /  0mm 0.0 W/m2
20:20 76.5 °F /  24.7 °C 57.6 °F /  14.2 °C 29.66in /  1004.3hPa Calm   1.0mph /  1.6km/h 52% 0.00in /  0mm 0.0 W/m2
20:26 76.3 °F /  24.6 °C 57.4 °F /  14.1 °C 29.66in /  1004.3hPa Calm     52% 0.00in /  0mm 0.0 W/m2
20:32 76.3 °F /  24.6 °C 57.9 °F /  14.4 °C 29.66in /  1004.3hPa Calm   1.0mph /  1.6km/h 53% 0.00in /  0mm 0.0 W/m2
20:38 75.9 °F /  24.4 °C 58.1 °F /  14.5 °C 29.66in /  1004.3hPa Calm     54% 0.00in /  0mm 0.0 W/m2
20:44 75.7 °F /  24.3 °C 57.4 °F /  14.1 °C 29.67in /  1004.6hPa Calm   1.0mph /  1.6km/h 53% 0.00in /  0mm 0.0 W/m2
20:50 75.6 °F /  24.2 °C 57.2 °F /  14 °C 29.67in /  1004.6hPa NNW 2.0mph /  3.2km/h 5.0mph /  8km/h 53% 0.00in /  0mm 0.0 W/m2
20:56 75.6 °F /  24.2 °C 57.2 °F /  14 °C 29.67in /  1004.6hPa Calm   6.0mph /  9.7km/h 53% 0.00in /  0mm 0.0 W/m2
21:02 75.6 °F /  24.2 °C 57.7 °F /  14.3 °C 29.68in /  1005hPa West 0.9mph /  1.4km/h 1.0mph /  1.6km/h 54% 0.00in /  0mm 0.0 W/m2
21:08 75.4 °F /  24.1 °C 58.6 °F /  14.8 °C 29.68in /  1005hPa Calm   4.0mph /  6.4km/h 56% 0.00in /  0mm 0.0 W/m2
21:14 75.0 °F /  23.9 °C 58.8 °F /  14.9 °C 29.68in /  1005hPa Calm   1.0mph /  1.6km/h 57% 0.00in /  0mm 0.0 W/m2
21:20 74.5 °F /  23.6 °C 58.8 °F /  14.9 °C 29.68in /  1005hPa Calm   4.0mph /  6.4km/h 58% 0.00in /  0mm 0.0 W/m2
21:26 74.1 °F /  23.4 °C 58.5 °F /  14.7 °C 29.68in /  1005hPa Calm     58% 0.00in /  0mm 0.0 W/m2
21:33 73.8 °F /  23.2 °C 58.5 °F /  14.7 °C 29.68in /  1005hPa Calm   2.0mph /  3.2km/h 59% 0.00in /  0mm 0.0 W/m2
21:39 73.6 °F /  23.1 °C 58.8 °F /  14.9 °C 29.69in /  1005.3hPa North 2.9mph /  4.7km/h 3.0mph /  4.8km/h 60% 0.00in /  0mm 0.0 W/m2
21:45 73.2 °F /  22.9 °C 59.0 °F /  15 °C 29.69in /  1005.3hPa NNE 2.0mph /  3.2km/h 2.0mph /  3.2km/h 61% 0.00in /  0mm 0.0 W/m2
21:51 72.9 °F /  22.7 °C 59.0 °F /  15 °C 29.69in /  1005.3hPa North 0.9mph /  1.4km/h 3.0mph /  4.8km/h 62% 0.00in /  0mm 0.0 W/m2
21:57 72.7 °F /  22.6 °C 59.4 °F /  15.2 °C 29.70in /  1005.6hPa Calm   1.0mph /  1.6km/h 63% 0.00in /  0mm 0.0 W/m2
22:03 72.3 °F /  22.4 °C 59.0 °F /  15 °C 29.70in /  1005.6hPa Calm   2.0mph /  3.2km/h 63% 0.00in /  0mm 0.0 W/m2
22:09 72.0 °F /  22.2 °C 59.2 °F /  15.1 °C 29.70in /  1005.6hPa Calm   2.0mph /  3.2km/h 64% 0.00in /  0mm 0.0 W/m2
22:15 71.8 °F /  22.1 °C 59.4 °F /  15.2 °C 29.70in /  1005.6hPa Calm   1.0mph /  1.6km/h 65% 0.00in /  0mm 0.0 W/m2
22:21 71.4 °F /  21.9 °C 59.0 °F /  15 °C 29.70in /  1005.6hPa Calm   1.0mph /  1.6km/h 65% 0.00in /  0mm 0.0 W/m2
22:27 71.2 °F /  21.8 °C 59.4 °F /  15.2 °C 29.70in /  1005.6hPa Calm     66% 0.00in /  0mm 0.0 W/m2
22:33 71.1 °F /  21.7 °C 59.5 °F /  15.3 °C 29.70in /  1005.6hPa Calm   1.0mph /  1.6km/h 67% 0.00in /  0mm 0.0 W/m2
22:39 70.9 °F /  21.6 °C 59.4 °F /  15.2 °C 29.70in /  1005.6hPa Calm   1.0mph /  1.6km/h 67% 0.00in /  0mm 0.0 W/m2
22:45 70.7 °F /  21.5 °C 59.2 °F /  15.1 °C 29.70in /  1005.6hPa Calm     67% 0.00in /  0mm 0.0 W/m2
22:51 70.5 °F /  21.4 °C 59.0 °F /  15 °C 29.70in /  1005.6hPa Calm     67% 0.00in /  0mm 0.0 W/m2
22:57 70.5 °F /  21.4 °C 59.0 °F /  15 °C 29.70in /  1005.6hPa Calm     67% 0.00in /  0mm 0.0 W/m2
23:03 70.5 °F /  21.4 °C 59.4 °F /  15.2 °C 29.71in /  1006hPa Calm     68% 0.00in /  0mm 0.0 W/m2
23:10 70.3 °F /  21.3 °C 60.1 °F /  15.6 °C 29.71in /  1006hPa Calm     70% 0.00in /  0mm 0.0 W/m2
23:16 70.3 °F /  21.3 °C 60.4 °F /  15.8 °C 29.71in /  1006hPa Calm     71% 0.00in /  0mm 0.0 W/m2
23:22 70.2 °F /  21.2 °C 60.3 °F /  15.7 °C 29.71in /  1006hPa Calm     71% 0.00in /  0mm 0.0 W/m2
23:28 70.2 °F /  21.2 °C 59.9 °F /  15.5 °C 29.71in /  1006hPa South 0.9mph /  1.4km/h 1.0mph /  1.6km/h 70% 0.00in /  0mm 0.0 W/m2
23:34 70.2 °F /  21.2 °C 59.9 °F /  15.5 °C 29.71in /  1006hPa Calm     70% 0.00in /  0mm 0.0 W/m2
23:40 70.0 °F /  21.1 °C 59.7 °F /  15.4 °C 29.71in /  1006hPa Calm   1.0mph /  1.6km/h 70% 0.00in /  0mm 0.0 W/m2
23:46 70.0 °F /  21.1 °C 59.7 °F /  15.4 °C 29.70in /  1005.6hPa Calm   1.0mph /  1.6km/h 70% 0.00in /  0mm 0.0 W/m2
23:52 70.0 °F /  21.1 °C 59.7 °F /  15.4 °C 29.70in /  1005.6hPa Calm     70% 0.00in /  0mm 0.0 W/m2
23:59 70.0 °F /  21.1 °C 60.1 °F /  15.6 °C 29.70in /  1005.6hPa Calm     71% 0.00in /  0mm 0.0 W/m2
Olympia, Windhoek, Namibia
Compliments of Weather Underground - 3 mb